sensor_id;sensor_type;location;lat;lon;timestamp;P1;durP1;ratioP1;P2;durP2;ratioP2
84891;SDS011;75154;42.072;21.394;2024-01-11T00:00:39;43.72;;;22.77;;
84891;SDS011;75154;42.072;21.394;2024-01-11T00:03:05;37.13;;;21.35;;
84891;SDS011;75154;42.072;21.394;2024-01-11T00:05:31;36.47;;;21.25;;
84891;SDS011;75154;42.072;21.394;2024-01-11T00:07:57;39.00;;;22.50;;
84891;SDS011;75154;42.072;21.394;2024-01-11T00:10:23;34.45;;;21.52;;
84891;SDS011;75154;42.072;21.394;2024-01-11T00:12:49;37.65;;;21.00;;
84891;SDS011;75154;42.072;21.394;2024-01-11T00:15:15;35.15;;;20.13;;
84891;SDS011;75154;42.072;21.394;2024-01-11T00:17:41;35.97;;;22.30;;
84891;SDS011;75154;42.072;21.394;2024-01-11T00:20:07;37.35;;;22.23;;
84891;SDS011;75154;42.072;21.394;2024-01-11T00:22:34;39.08;;;22.50;;
84891;SDS011;75154;42.072;21.394;2024-01-11T00:25:00;36.78;;;21.45;;
84891;SDS011;75154;42.072;21.394;2024-01-11T00:27:26;33.88;;;21.73;;
84891;SDS011;75154;42.072;21.394;2024-01-11T00:29:53;39.95;;;22.80;;
84891;SDS011;75154;42.072;21.394;2024-01-11T00:32:19;33.80;;;20.75;;
84891;SDS011;75154;42.072;21.394;2024-01-11T00:34:46;44.28;;;24.10;;
84891;SDS011;75154;42.072;21.394;2024-01-11T00:37:12;37.58;;;22.20;;
84891;SDS011;75154;42.072;21.394;2024-01-11T00:39:38;37.45;;;20.83;;
84891;SDS011;75154;42.072;21.394;2024-01-11T00:42:04;35.05;;;22.10;;
84891;SDS011;75154;42.072;21.394;2024-01-11T00:44:30;37.33;;;22.85;;
84891;SDS011;75154;42.072;21.394;2024-01-11T00:46:56;38.08;;;23.23;;
84891;SDS011;75154;42.072;21.394;2024-01-11T00:49:23;39.10;;;21.40;;
84891;SDS011;75154;42.072;21.394;2024-01-11T00:51:49;36.28;;;22.48;;
84891;SDS011;75154;42.072;21.394;2024-01-11T00:54:15;36.47;;;20.73;;
84891;SDS011;75154;42.072;21.394;2024-01-11T00:56:41;33.95;;;22.13;;
84891;SDS011;75154;42.072;21.394;2024-01-11T00:59:07;32.85;;;19.20;;
84891;SDS011;75154;42.072;21.394;2024-01-11T01:01:33;33.83;;;20.85;;
84891;SDS011;75154;42.072;21.394;2024-01-11T01:03:59;35.78;;;20.33;;
84891;SDS011;75154;42.072;21.394;2024-01-11T01:06:25;35.17;;;21.13;;
84891;SDS011;75154;42.072;21.394;2024-01-11T01:08:52;36.67;;;22.67;;
84891;SDS011;75154;42.072;21.394;2024-01-11T01:11:18;38.30;;;23.90;;
84891;SDS011;75154;42.072;21.394;2024-01-11T01:13:44;44.00;;;24.75;;
84891;SDS011;75154;42.072;21.394;2024-01-11T01:16:10;38.10;;;22.67;;
84891;SDS011;75154;42.072;21.394;2024-01-11T01:18:36;41.72;;;24.90;;
84891;SDS011;75154;42.072;21.394;2024-01-11T01:21:02;42.47;;;24.10;;
84891;SDS011;75154;42.072;21.394;2024-01-11T01:23:32;43.05;;;24.88;;
84891;SDS011;75154;42.072;21.394;2024-01-11T01:25:58;46.15;;;28.17;;
84891;SDS011;75154;42.072;21.394;2024-01-11T01:28:24;40.15;;;22.77;;
84891;SDS011;75154;42.072;21.394;2024-01-11T01:30:50;44.55;;;24.55;;
84891;SDS011;75154;42.072;21.394;2024-01-11T01:33:16;48.08;;;27.42;;
84891;SDS011;75154;42.072;21.394;2024-01-11T01:35:42;42.83;;;24.50;;
84891;SDS011;75154;42.072;21.394;2024-01-11T01:38:08;46.53;;;27.48;;
84891;SDS011;75154;42.072;21.394;2024-01-11T01:40:34;43.33;;;25.30;;
84891;SDS011;75154;42.072;21.394;2024-01-11T01:43:00;47.63;;;26.30;;
84891;SDS011;75154;42.072;21.394;2024-01-11T01:45:27;46.90;;;25.67;;
84891;SDS011;75154;42.072;21.394;2024-01-11T01:47:53;40.55;;;23.52;;
84891;SDS011;75154;42.072;21.394;2024-01-11T01:50:19;45.40;;;25.45;;
84891;SDS011;75154;42.072;21.394;2024-01-11T01:52:46;42.33;;;25.45;;
84891;SDS011;75154;42.072;21.394;2024-01-11T01:55:12;37.85;;;21.80;;
84891;SDS011;75154;42.072;21.394;2024-01-11T01:57:40;40.97;;;22.80;;
84891;SDS011;75154;42.072;21.394;2024-01-11T02:00:08;45.83;;;26.58;;
84891;SDS011;75154;42.072;21.394;2024-01-11T02:02:35;43.97;;;26.38;;
84891;SDS011;75154;42.072;21.394;2024-01-11T02:05:01;42.42;;;24.65;;
84891;SDS011;75154;42.072;21.394;2024-01-11T02:07:27;44.95;;;23.25;;
84891;SDS011;75154;42.072;21.394;2024-01-11T02:09:53;42.03;;;24.48;;
84891;SDS011;75154;42.072;21.394;2024-01-11T02:12:20;38.88;;;23.98;;
84891;SDS011;75154;42.072;21.394;2024-01-11T02:14:46;42.47;;;21.60;;
84891;SDS011;75154;42.072;21.394;2024-01-11T02:17:12;42.13;;;25.30;;
84891;SDS011;75154;42.072;21.394;2024-01-11T02:19:38;43.92;;;25.67;;
84891;SDS011;75154;42.072;21.394;2024-01-11T02:22:08;37.65;;;22.73;;
84891;SDS011;75154;42.072;21.394;2024-01-11T02:24:38;45.83;;;24.17;;
84891;SDS011;75154;42.072;21.394;2024-01-11T02:27:04;41.13;;;21.98;;
84891;SDS011;75154;42.072;21.394;2024-01-11T02:29:31;44.20;;;25.88;;
84891;SDS011;75154;42.072;21.394;2024-01-11T02:31:58;44.35;;;24.17;;
84891;SDS011;75154;42.072;21.394;2024-01-11T02:34:25;38.58;;;22.60;;
84891;SDS011;75154;42.072;21.394;2024-01-11T02:36:55;42.38;;;24.65;;
84891;SDS011;75154;42.072;21.394;2024-01-11T02:39:23;38.88;;;24.50;;
84891;SDS011;75154;42.072;21.394;2024-01-11T02:41:49;45.60;;;27.10;;
84891;SDS011;75154;42.072;21.394;2024-01-11T02:44:16;41.75;;;25.10;;
84891;SDS011;75154;42.072;21.394;2024-01-11T02:46:42;45.22;;;23.13;;
84891;SDS011;75154;42.072;21.394;2024-01-11T02:49:08;46.75;;;24.63;;
84891;SDS011;75154;42.072;21.394;2024-01-11T02:51:34;38.88;;;24.73;;
84891;SDS011;75154;42.072;21.394;2024-01-11T02:54:01;38.13;;;23.95;;
84891;SDS011;75154;42.072;21.394;2024-01-11T02:56:27;45.03;;;23.25;;
84891;SDS011;75154;42.072;21.394;2024-01-11T02:58:53;43.80;;;25.02;;
84891;SDS011;75154;42.072;21.394;2024-01-11T03:01:19;43.08;;;24.75;;
84891;SDS011;75154;42.072;21.394;2024-01-11T03:03:45;46.03;;;23.65;;
84891;SDS011;75154;42.072;21.394;2024-01-11T03:06:12;43.78;;;23.35;;
84891;SDS011;75154;42.072;21.394;2024-01-11T03:08:39;39.80;;;25.65;;
84891;SDS011;75154;42.072;21.394;2024-01-11T03:11:05;40.55;;;22.70;;
84891;SDS011;75154;42.072;21.394;2024-01-11T03:13:31;41.65;;;23.95;;
84891;SDS011;75154;42.072;21.394;2024-01-11T03:15:57;43.97;;;26.08;;
84891;SDS011;75154;42.072;21.394;2024-01-11T03:18:23;43.95;;;23.27;;
84891;SDS011;75154;42.072;21.394;2024-01-11T03:20:49;44.63;;;25.85;;
84891;SDS011;75154;42.072;21.394;2024-01-11T03:23:16;47.92;;;25.60;;
84891;SDS011;75154;42.072;21.394;2024-01-11T03:25:42;43.75;;;24.48;;
84891;SDS011;75154;42.072;21.394;2024-01-11T03:28:08;40.63;;;23.73;;
84891;SDS011;75154;42.072;21.394;2024-01-11T03:30:34;42.08;;;22.55;;
84891;SDS011;75154;42.072;21.394;2024-01-11T03:33:00;43.05;;;23.27;;
84891;SDS011;75154;42.072;21.394;2024-01-11T03:35:26;37.75;;;23.17;;
84891;SDS011;75154;42.072;21.394;2024-01-11T03:37:52;40.58;;;22.73;;
84891;SDS011;75154;42.072;21.394;2024-01-11T03:40:18;34.42;;;20.10;;
84891;SDS011;75154;42.072;21.394;2024-01-11T03:42:44;35.70;;;21.27;;
84891;SDS011;75154;42.072;21.394;2024-01-11T03:45:10;36.65;;;21.05;;
84891;SDS011;75154;42.072;21.394;2024-01-11T03:47:36;32.65;;;20.75;;
84891;SDS011;75154;42.072;21.394;2024-01-11T03:50:03;35.28;;;21.40;;
84891;SDS011;75154;42.072;21.394;2024-01-11T03:52:29;34.28;;;19.38;;
84891;SDS011;75154;42.072;21.394;2024-01-11T03:54:55;39.15;;;21.48;;
84891;SDS011;75154;42.072;21.394;2024-01-11T03:57:21;34.88;;;19.08;;
84891;SDS011;75154;42.072;21.394;2024-01-11T03:59:47;32.42;;;19.77;;
84891;SDS011;75154;42.072;21.394;2024-01-11T04:02:13;37.08;;;21.20;;
84891;SDS011;75154;42.072;21.394;2024-01-11T04:04:40;33.17;;;19.95;;
84891;SDS011;75154;42.072;21.394;2024-01-11T04:07:06;33.00;;;18.25;;
84891;SDS011;75154;42.072;21.394;2024-01-11T04:09:32;27.80;;;18.05;;
84891;SDS011;75154;42.072;21.394;2024-01-11T04:11:58;28.52;;;14.88;;
84891;SDS011;75154;42.072;21.394;2024-01-11T04:14:24;26.83;;;15.65;;
84891;SDS011;75154;42.072;21.394;2024-01-11T04:16:51;26.27;;;16.00;;
84891;SDS011;75154;42.072;21.394;2024-01-11T04:19:17;25.02;;;13.93;;
84891;SDS011;75154;42.072;21.394;2024-01-11T04:21:43;26.60;;;16.50;;
84891;SDS011;75154;42.072;21.394;2024-01-11T04:24:10;24.05;;;15.07;;
84891;SDS011;75154;42.072;21.394;2024-01-11T04:26:36;25.50;;;15.10;;
84891;SDS011;75154;42.072;21.394;2024-01-11T04:29:02;23.58;;;13.30;;
84891;SDS011;75154;42.072;21.394;2024-01-11T04:31:28;26.77;;;15.65;;
84891;SDS011;75154;42.072;21.394;2024-01-11T04:33:54;26.55;;;13.98;;
84891;SDS011;75154;42.072;21.394;2024-01-11T04:36:20;24.98;;;15.43;;
84891;SDS011;75154;42.072;21.394;2024-01-11T04:38:46;24.92;;;14.40;;
84891;SDS011;75154;42.072;21.394;2024-01-11T04:41:12;24.65;;;15.13;;
84891;SDS011;75154;42.072;21.394;2024-01-11T04:43:39;20.40;;;13.07;;
84891;SDS011;75154;42.072;21.394;2024-01-11T04:46:16;24.35;;;15.13;;
84891;SDS011;75154;42.072;21.394;2024-01-11T04:48:42;23.48;;;14.52;;
84891;SDS011;75154;42.072;21.394;2024-01-11T04:51:09;22.38;;;13.95;;
84891;SDS011;75154;42.072;21.394;2024-01-11T04:53:36;21.35;;;13.40;;
84891;SDS011;75154;42.072;21.394;2024-01-11T04:56:03;24.13;;;14.00;;
84891;SDS011;75154;42.072;21.394;2024-01-11T04:58:29;23.33;;;14.63;;
84891;SDS011;75154;42.072;21.394;2024-01-11T05:00:55;25.70;;;14.70;;
84891;SDS011;75154;42.072;21.394;2024-01-11T05:03:21;22.85;;;14.18;;
84891;SDS011;75154;42.072;21.394;2024-01-11T05:05:47;25.98;;;14.02;;
84891;SDS011;75154;42.072;21.394;2024-01-11T05:08:13;23.10;;;14.23;;
84891;SDS011;75154;42.072;21.394;2024-01-11T05:10:39;22.63;;;13.77;;
84891;SDS011;75154;42.072;21.394;2024-01-11T05:13:05;21.08;;;13.95;;
84891;SDS011;75154;42.072;21.394;2024-01-11T05:15:31;23.70;;;14.50;;
84891;SDS011;75154;42.072;21.394;2024-01-11T05:17:58;25.83;;;14.07;;
84891;SDS011;75154;42.072;21.394;2024-01-11T05:20:24;23.77;;;13.93;;
84891;SDS011;75154;42.072;21.394;2024-01-11T05:22:50;23.50;;;13.30;;
84891;SDS011;75154;42.072;21.394;2024-01-11T05:25:16;24.30;;;13.50;;
84891;SDS011;75154;42.072;21.394;2024-01-11T05:27:42;23.98;;;14.98;;
84891;SDS011;75154;42.072;21.394;2024-01-11T05:30:08;24.63;;;15.18;;
84891;SDS011;75154;42.072;21.394;2024-01-11T05:32:35;24.67;;;14.70;;
84891;SDS011;75154;42.072;21.394;2024-01-11T05:35:01;25.55;;;16.20;;
84891;SDS011;75154;42.072;21.394;2024-01-11T05:37:27;25.08;;;14.02;;
84891;SDS011;75154;42.072;21.394;2024-01-11T05:39:53;27.48;;;16.73;;
84891;SDS011;75154;42.072;21.394;2024-01-11T05:42:22;25.52;;;16.08;;
84891;SDS011;75154;42.072;21.394;2024-01-11T05:44:48;24.05;;;15.68;;
84891;SDS011;75154;42.072;21.394;2024-01-11T05:47:14;24.77;;;16.13;;
84891;SDS011;75154;42.072;21.394;2024-01-11T05:49:40;29.02;;;16.88;;
84891;SDS011;75154;42.072;21.394;2024-01-11T05:52:06;25.75;;;14.77;;
84891;SDS011;75154;42.072;21.394;2024-01-11T05:54:33;27.80;;;16.42;;
84891;SDS011;75154;42.072;21.394;2024-01-11T05:56:59;27.10;;;16.15;;
84891;SDS011;75154;42.072;21.394;2024-01-11T05:59:25;25.60;;;16.17;;
84891;SDS011;75154;42.072;21.394;2024-01-11T06:01:51;28.30;;;16.73;;
84891;SDS011;75154;42.072;21.394;2024-01-11T06:04:17;29.27;;;17.40;;
84891;SDS011;75154;42.072;21.394;2024-01-11T06:06:43;30.25;;;15.60;;
84891;SDS011;75154;42.072;21.394;2024-01-11T06:09:09;27.60;;;17.23;;
84891;SDS011;75154;42.072;21.394;2024-01-11T06:11:35;26.75;;;15.98;;
84891;SDS011;75154;42.072;21.394;2024-01-11T06:14:01;24.67;;;16.15;;
84891;SDS011;75154;42.072;21.394;2024-01-11T06:16:28;26.58;;;15.48;;
84891;SDS011;75154;42.072;21.394;2024-01-11T06:18:54;28.00;;;16.38;;
84891;SDS011;75154;42.072;21.394;2024-01-11T06:21:20;28.15;;;15.95;;
84891;SDS011;75154;42.072;21.394;2024-01-11T06:23:46;35.03;;;17.58;;
84891;SDS011;75154;42.072;21.394;2024-01-11T06:26:14;32.15;;;16.95;;
84891;SDS011;75154;42.072;21.394;2024-01-11T06:28:40;27.67;;;17.15;;
84891;SDS011;75154;42.072;21.394;2024-01-11T06:31:06;25.85;;;14.88;;
84891;SDS011;75154;42.072;21.394;2024-01-11T06:33:32;29.33;;;17.17;;
84891;SDS011;75154;42.072;21.394;2024-01-11T06:36:02;26.15;;;15.82;;
84891;SDS011;75154;42.072;21.394;2024-01-11T06:38:28;27.15;;;17.20;;
84891;SDS011;75154;42.072;21.394;2024-01-11T06:40:54;29.92;;;16.58;;
84891;SDS011;75154;42.072;21.394;2024-01-11T06:43:20;27.67;;;15.98;;
84891;SDS011;75154;42.072;21.394;2024-01-11T06:45:46;27.95;;;15.93;;
84891;SDS011;75154;42.072;21.394;2024-01-11T06:48:12;29.48;;;17.42;;
84891;SDS011;75154;42.072;21.394;2024-01-11T06:50:38;29.95;;;15.65;;
84891;SDS011;75154;42.072;21.394;2024-01-11T06:53:04;29.35;;;16.55;;
84891;SDS011;75154;42.072;21.394;2024-01-11T06:55:30;28.67;;;17.70;;
84891;SDS011;75154;42.072;21.394;2024-01-11T06:57:56;28.42;;;17.67;;
84891;SDS011;75154;42.072;21.394;2024-01-11T07:00:23;29.40;;;18.58;;
84891;SDS011;75154;42.072;21.394;2024-01-11T07:02:49;26.90;;;16.67;;
84891;SDS011;75154;42.072;21.394;2024-01-11T07:05:15;29.05;;;17.25;;
84891;SDS011;75154;42.072;21.394;2024-01-11T07:07:41;29.38;;;17.55;;
84891;SDS011;75154;42.072;21.394;2024-01-11T07:10:07;27.17;;;16.92;;
84891;SDS011;75154;42.072;21.394;2024-01-11T07:12:33;29.77;;;16.92;;
84891;SDS011;75154;42.072;21.394;2024-01-11T07:15:00;33.63;;;18.45;;
84891;SDS011;75154;42.072;21.394;2024-01-11T07:17:26;26.40;;;15.43;;
84891;SDS011;75154;42.072;21.394;2024-01-11T07:19:52;28.73;;;18.63;;
84891;SDS011;75154;42.072;21.394;2024-01-11T07:22:18;28.52;;;17.25;;
84891;SDS011;75154;42.072;21.394;2024-01-11T07:24:44;29.45;;;18.02;;
84891;SDS011;75154;42.072;21.394;2024-01-11T07:27:10;27.65;;;17.10;;
84891;SDS011;75154;42.072;21.394;2024-01-11T07:29:36;30.55;;;17.63;;
84891;SDS011;75154;42.072;21.394;2024-01-11T07:32:02;30.63;;;17.42;;
84891;SDS011;75154;42.072;21.394;2024-01-11T07:34:31;35.55;;;16.48;;
84891;SDS011;75154;42.072;21.394;2024-01-11T07:36:58;33.78;;;17.92;;
84891;SDS011;75154;42.072;21.394;2024-01-11T07:39:24;31.42;;;18.73;;
84891;SDS011;75154;42.072;21.394;2024-01-11T07:41:50;30.73;;;19.02;;
84891;SDS011;75154;42.072;21.394;2024-01-11T07:44:17;32.35;;;18.85;;
84891;SDS011;75154;42.072;21.394;2024-01-11T07:46:43;36.38;;;17.00;;
84891;SDS011;75154;42.072;21.394;2024-01-11T07:49:09;29.60;;;17.15;;
84891;SDS011;75154;42.072;21.394;2024-01-11T07:51:36;32.67;;;17.40;;
84891;SDS011;75154;42.072;21.394;2024-01-11T07:54:02;30.67;;;18.20;;
84891;SDS011;75154;42.072;21.394;2024-01-11T07:56:28;26.48;;;17.30;;
84891;SDS011;75154;42.072;21.394;2024-01-11T07:58:55;30.52;;;19.48;;
84891;SDS011;75154;42.072;21.394;2024-01-11T08:01:21;33.40;;;18.17;;
84891;SDS011;75154;42.072;21.394;2024-01-11T08:03:47;34.88;;;19.80;;
84891;SDS011;75154;42.072;21.394;2024-01-11T08:06:13;32.80;;;19.70;;
84891;SDS011;75154;42.072;21.394;2024-01-11T08:08:39;30.80;;;17.05;;
84891;SDS011;75154;42.072;21.394;2024-01-11T08:11:09;30.30;;;17.20;;
84891;SDS011;75154;42.072;21.394;2024-01-11T08:13:38;36.28;;;20.27;;
84891;SDS011;75154;42.072;21.394;2024-01-11T08:16:04;29.17;;;18.80;;
84891;SDS011;75154;42.072;21.394;2024-01-11T08:18:34;32.80;;;20.88;;
84891;SDS011;75154;42.072;21.394;2024-01-11T08:21:00;36.25;;;21.00;;
84891;SDS011;75154;42.072;21.394;2024-01-11T08:23:26;35.28;;;20.08;;
84891;SDS011;75154;42.072;21.394;2024-01-11T08:25:52;34.22;;;18.88;;
84891;SDS011;75154;42.072;21.394;2024-01-11T08:28:19;31.85;;;19.00;;
84891;SDS011;75154;42.072;21.394;2024-01-11T08:30:45;34.58;;;18.75;;
84891;SDS011;75154;42.072;21.394;2024-01-11T08:33:11;30.40;;;18.90;;
84891;SDS011;75154;42.072;21.394;2024-01-11T08:35:39;35.15;;;19.77;;
84891;SDS011;75154;42.072;21.394;2024-01-11T08:38:06;34.42;;;20.25;;
84891;SDS011;75154;42.072;21.394;2024-01-11T08:40:32;35.33;;;20.58;;
84891;SDS011;75154;42.072;21.394;2024-01-11T08:42:59;33.95;;;20.30;;
84891;SDS011;75154;42.072;21.394;2024-01-11T08:45:25;34.90;;;19.90;;
84891;SDS011;75154;42.072;21.394;2024-01-11T08:47:51;33.97;;;20.50;;
84891;SDS011;75154;42.072;21.394;2024-01-11T08:50:17;37.55;;;20.70;;
84891;SDS011;75154;42.072;21.394;2024-01-11T08:52:43;33.40;;;19.27;;
84891;SDS011;75154;42.072;21.394;2024-01-11T08:55:09;34.45;;;20.38;;
84891;SDS011;75154;42.072;21.394;2024-01-11T08:57:37;35.38;;;21.20;;
84891;SDS011;75154;42.072;21.394;2024-01-11T09:00:04;32.88;;;20.15;;
84891;SDS011;75154;42.072;21.394;2024-01-11T09:02:33;35.85;;;20.10;;
84891;SDS011;75154;42.072;21.394;2024-01-11T09:05:00;37.88;;;20.27;;
84891;SDS011;75154;42.072;21.394;2024-01-11T09:07:27;38.70;;;21.70;;
84891;SDS011;75154;42.072;21.394;2024-01-11T09:09:53;37.35;;;21.33;;
84891;SDS011;75154;42.072;21.394;2024-01-11T09:12:19;35.28;;;21.60;;
84891;SDS011;75154;42.072;21.394;2024-01-11T09:14:46;37.03;;;21.17;;
84891;SDS011;75154;42.072;21.394;2024-01-11T09:17:13;31.77;;;20.17;;
84891;SDS011;75154;42.072;21.394;2024-01-11T09:19:39;37.10;;;21.20;;
84891;SDS011;75154;42.072;21.394;2024-01-11T09:22:05;34.97;;;20.58;;
84891;SDS011;75154;42.072;21.394;2024-01-11T09:24:35;31.98;;;18.67;;
84891;SDS011;75154;42.072;21.394;2024-01-11T09:27:01;36.35;;;19.05;;
84891;SDS011;75154;42.072;21.394;2024-01-11T09:29:29;36.58;;;21.90;;
84891;SDS011;75154;42.072;21.394;2024-01-11T09:31:55;32.75;;;20.35;;
84891;SDS011;75154;42.072;21.394;2024-01-11T09:34:21;37.90;;;19.52;;
84891;SDS011;75154;42.072;21.394;2024-01-11T09:36:47;34.22;;;22.10;;
84891;SDS011;75154;42.072;21.394;2024-01-11T09:39:13;31.33;;;18.35;;
84891;SDS011;75154;42.072;21.394;2024-01-11T09:41:41;30.75;;;16.48;;
84891;SDS011;75154;42.072;21.394;2024-01-11T09:44:09;33.60;;;18.45;;
84891;SDS011;75154;42.072;21.394;2024-01-11T09:46:35;31.98;;;17.08;;
84891;SDS011;75154;42.072;21.394;2024-01-11T09:49:02;35.50;;;17.45;;
84891;SDS011;75154;42.072;21.394;2024-01-11T09:51:29;30.17;;;18.65;;
84891;SDS011;75154;42.072;21.394;2024-01-11T09:53:55;33.05;;;18.67;;
84891;SDS011;75154;42.072;21.394;2024-01-11T09:56:22;31.73;;;18.83;;
84891;SDS011;75154;42.072;21.394;2024-01-11T09:58:49;32.20;;;19.60;;
84891;SDS011;75154;42.072;21.394;2024-01-11T10:01:15;29.45;;;16.70;;
84891;SDS011;75154;42.072;21.394;2024-01-11T10:03:44;28.08;;;17.85;;
84891;SDS011;75154;42.072;21.394;2024-01-11T10:06:13;31.33;;;19.02;;
84891;SDS011;75154;42.072;21.394;2024-01-11T10:08:40;33.38;;;20.02;;
84891;SDS011;75154;42.072;21.394;2024-01-11T10:11:07;30.92;;;18.27;;
84891;SDS011;75154;42.072;21.394;2024-01-11T10:13:33;33.38;;;19.02;;
84891;SDS011;75154;42.072;21.394;2024-01-11T10:18:33;31.42;;;16.60;;
84891;SDS011;75154;42.072;21.394;2024-01-11T10:20:59;30.65;;;17.75;;
84891;SDS011;75154;42.072;21.394;2024-01-11T10:23:25;35.58;;;19.55;;
84891;SDS011;75154;42.072;21.394;2024-01-11T10:25:54;33.08;;;18.55;;
84891;SDS011;75154;42.072;21.394;2024-01-11T10:28:22;34.58;;;18.60;;
84891;SDS011;75154;42.072;21.394;2024-01-11T10:30:48;29.02;;;18.20;;
84891;SDS011;75154;42.072;21.394;2024-01-11T10:33:19;33.40;;;17.75;;
84891;SDS011;75154;42.072;21.394;2024-01-11T10:35:46;32.83;;;19.05;;
84891;SDS011;75154;42.072;21.394;2024-01-11T10:38:14;34.75;;;17.38;;
84891;SDS011;75154;42.072;21.394;2024-01-11T10:40:41;32.75;;;17.08;;
84891;SDS011;75154;42.072;21.394;2024-01-11T10:43:08;28.73;;;15.82;;
84891;SDS011;75154;42.072;21.394;2024-01-11T10:45:36;33.28;;;17.77;;
84891;SDS011;75154;42.072;21.394;2024-01-11T10:48:07;31.17;;;20.00;;
84891;SDS011;75154;42.072;21.394;2024-01-11T10:50:36;28.00;;;17.48;;
84891;SDS011;75154;42.072;21.394;2024-01-11T10:53:17;34.20;;;18.73;;
84891;SDS011;75154;42.072;21.394;2024-01-11T10:55:49;36.22;;;20.30;;
84891;SDS011;75154;42.072;21.394;2024-01-11T10:58:15;41.50;;;21.05;;
84891;SDS011;75154;42.072;21.394;2024-01-11T11:00:42;35.58;;;19.90;;
84891;SDS011;75154;42.072;21.394;2024-01-11T11:03:08;34.50;;;20.40;;
84891;SDS011;75154;42.072;21.394;2024-01-11T11:05:35;39.33;;;23.70;;
84891;SDS011;75154;42.072;21.394;2024-01-11T11:08:02;36.58;;;21.45;;
84891;SDS011;75154;42.072;21.394;2024-01-11T11:10:31;36.42;;;20.30;;
84891;SDS011;75154;42.072;21.394;2024-01-11T11:12:58;33.22;;;22.00;;
84891;SDS011;75154;42.072;21.394;2024-01-11T11:15:26;31.65;;;18.50;;
84891;SDS011;75154;42.072;21.394;2024-01-11T11:17:56;32.25;;;19.90;;
84891;SDS011;75154;42.072;21.394;2024-01-11T11:20:23;38.55;;;21.30;;
84891;SDS011;75154;42.072;21.394;2024-01-11T11:23:04;38.00;;;21.75;;
84891;SDS011;75154;42.072;21.394;2024-01-11T11:25:31;32.00;;;18.65;;
84891;SDS011;75154;42.072;21.394;2024-01-11T11:27:58;31.77;;;17.58;;
84891;SDS011;75154;42.072;21.394;2024-01-11T11:30:29;33.70;;;20.13;;
84891;SDS011;75154;42.072;21.394;2024-01-11T11:32:56;29.75;;;17.05;;
84891;SDS011;75154;42.072;21.394;2024-01-11T11:35:25;33.95;;;19.48;;
84891;SDS011;75154;42.072;21.394;2024-01-11T11:37:57;31.05;;;18.00;;
84891;SDS011;75154;42.072;21.394;2024-01-11T11:43:21;28.35;;;15.98;;
84891;SDS011;75154;42.072;21.394;2024-01-11T11:45:48;32.75;;;20.83;;
84891;SDS011;75154;42.072;21.394;2024-01-11T11:51:07;37.90;;;21.52;;
84891;SDS011;75154;42.072;21.394;2024-01-11T11:53:35;31.55;;;19.27;;
84891;SDS011;75154;42.072;21.394;2024-01-11T11:56:01;33.10;;;18.67;;
84891;SDS011;75154;42.072;21.394;2024-01-11T11:58:31;33.53;;;18.17;;
84891;SDS011;75154;42.072;21.394;2024-01-11T12:00:58;35.25;;;20.15;;
84891;SDS011;75154;42.072;21.394;2024-01-11T12:06:02;34.67;;;21.38;;
84891;SDS011;75154;42.072;21.394;2024-01-11T12:08:28;45.83;;;22.15;;
84891;SDS011;75154;42.072;21.394;2024-01-11T12:10:55;42.45;;;19.88;;
84891;SDS011;75154;42.072;21.394;2024-01-11T12:13:21;42.75;;;22.02;;
84891;SDS011;75154;42.072;21.394;2024-01-11T12:15:47;38.00;;;23.10;;
84891;SDS011;75154;42.072;21.394;2024-01-11T12:18:13;33.28;;;19.42;;
84891;SDS011;75154;42.072;21.394;2024-01-11T12:20:39;39.15;;;22.55;;
84891;SDS011;75154;42.072;21.394;2024-01-11T12:23:05;40.60;;;23.45;;
84891;SDS011;75154;42.072;21.394;2024-01-11T12:25:31;39.92;;;22.48;;
84891;SDS011;75154;42.072;21.394;2024-01-11T12:27:58;41.78;;;21.83;;
84891;SDS011;75154;42.072;21.394;2024-01-11T12:30:25;35.95;;;19.85;;
84891;SDS011;75154;42.072;21.394;2024-01-11T12:32:51;35.35;;;20.15;;
84891;SDS011;75154;42.072;21.394;2024-01-11T12:35:18;41.75;;;24.48;;
84891;SDS011;75154;42.072;21.394;2024-01-11T12:37:54;43.20;;;25.45;;
84891;SDS011;75154;42.072;21.394;2024-01-11T12:40:20;40.60;;;22.00;;
84891;SDS011;75154;42.072;21.394;2024-01-11T12:42:47;46.10;;;23.27;;
84891;SDS011;75154;42.072;21.394;2024-01-11T12:45:14;40.95;;;21.02;;
84891;SDS011;75154;42.072;21.394;2024-01-11T12:47:41;37.92;;;20.48;;
84891;SDS011;75154;42.072;21.394;2024-01-11T12:50:07;38.50;;;23.20;;
84891;SDS011;75154;42.072;21.394;2024-01-11T12:52:33;40.70;;;22.15;;
84891;SDS011;75154;42.072;21.394;2024-01-11T12:54:59;39.70;;;22.30;;
84891;SDS011;75154;42.072;21.394;2024-01-11T12:57:25;45.72;;;24.40;;
84891;SDS011;75154;42.072;21.394;2024-01-11T12:59:52;43.35;;;24.38;;
84891;SDS011;75154;42.072;21.394;2024-01-11T13:02:18;50.92;;;28.17;;
84891;SDS011;75154;42.072;21.394;2024-01-11T13:04:45;44.00;;;25.58;;
84891;SDS011;75154;42.072;21.394;2024-01-11T13:07:11;45.78;;;25.40;;
84891;SDS011;75154;42.072;21.394;2024-01-11T13:09:38;53.25;;;27.80;;
84891;SDS011;75154;42.072;21.394;2024-01-11T13:12:04;44.65;;;25.10;;
84891;SDS011;75154;42.072;21.394;2024-01-11T13:14:30;46.13;;;26.70;;
84891;SDS011;75154;42.072;21.394;2024-01-11T13:16:57;45.72;;;25.75;;
84891;SDS011;75154;42.072;21.394;2024-01-11T13:19:23;49.80;;;26.15;;
84891;SDS011;75154;42.072;21.394;2024-01-11T13:21:49;44.70;;;25.38;;
84891;SDS011;75154;42.072;21.394;2024-01-11T13:24:15;44.13;;;26.75;;
84891;SDS011;75154;42.072;21.394;2024-01-11T13:26:41;42.65;;;22.52;;
84891;SDS011;75154;42.072;21.394;2024-01-11T13:29:07;46.50;;;23.85;;
84891;SDS011;75154;42.072;21.394;2024-01-11T13:31:36;45.80;;;24.70;;
84891;SDS011;75154;42.072;21.394;2024-01-11T13:34:02;39.33;;;23.50;;
84891;SDS011;75154;42.072;21.394;2024-01-11T13:36:28;49.17;;;25.70;;
84891;SDS011;75154;42.072;21.394;2024-01-11T13:38:54;41.60;;;22.75;;
84891;SDS011;75154;42.072;21.394;2024-01-11T13:41:20;47.50;;;29.40;;
84891;SDS011;75154;42.072;21.394;2024-01-11T13:43:47;49.53;;;26.33;;
84891;SDS011;75154;42.072;21.394;2024-01-11T13:46:13;50.83;;;26.95;;
84891;SDS011;75154;42.072;21.394;2024-01-11T13:48:42;41.92;;;24.48;;
84891;SDS011;75154;42.072;21.394;2024-01-11T13:51:09;39.05;;;17.70;;
84891;SDS011;75154;42.072;21.394;2024-01-11T13:53:38;46.13;;;24.38;;
84891;SDS011;75154;42.072;21.394;2024-01-11T13:56:04;51.28;;;25.90;;
84891;SDS011;75154;42.072;21.394;2024-01-11T13:58:31;40.08;;;20.50;;
84891;SDS011;75154;42.072;21.394;2024-01-11T14:00:57;60.10;;;29.90;;
84891;SDS011;75154;42.072;21.394;2024-01-11T14:03:23;56.42;;;28.70;;
84891;SDS011;75154;42.072;21.394;2024-01-11T14:05:49;52.13;;;28.58;;
84891;SDS011;75154;42.072;21.394;2024-01-11T14:08:15;58.38;;;29.73;;
84891;SDS011;75154;42.072;21.394;2024-01-11T14:10:41;53.85;;;30.65;;
84891;SDS011;75154;42.072;21.394;2024-01-11T14:13:07;54.83;;;29.05;;
84891;SDS011;75154;42.072;21.394;2024-01-11T14:15:34;57.65;;;27.25;;